createdAt,value
2018-07-08T00:01:03.088Z,36.54
2018-07-08T00:03:35.438Z,36.52
2018-07-08T00:06:08.284Z,36.53
2018-07-08T00:08:41.627Z,36.50
2018-07-08T00:11:13.927Z,36.51
2018-07-08T00:13:46.928Z,36.48
2018-07-08T00:16:20.047Z,36.45
2018-07-08T00:18:53.004Z,36.48
2018-07-08T00:21:25.527Z,36.47
2018-07-08T00:23:58.348Z,36.44
2018-07-08T00:26:31.371Z,36.47
2018-07-08T00:29:04.846Z,36.44
2018-07-08T00:31:37.708Z,36.44
2018-07-08T00:34:10.615Z,36.45
2018-07-08T00:36:42.988Z,36.46
2018-07-08T00:39:15.140Z,36.45
2018-07-08T00:41:48.158Z,36.45
2018-07-08T00:44:20.891Z,36.44
2018-07-08T00:46:53.716Z,36.46
2018-07-08T00:49:26.269Z,36.45
2018-07-08T00:51:59.085Z,36.43
2018-07-08T00:54:31.636Z,36.43
2018-07-08T00:57:04.838Z,36.43
2018-07-08T00:59:37.744Z,36.41
2018-07-08T01:02:10.826Z,36.42
2018-07-08T01:04:43.193Z,36.40
2018-07-08T01:07:16.026Z,36.39
2018-07-08T01:09:48.680Z,36.37
2018-07-08T01:12:21.563Z,36.39
2018-07-08T01:14:54.298Z,36.39
2018-07-08T01:17:26.977Z,36.39
2018-07-08T01:19:59.350Z,36.39
2018-07-08T01:22:32.433Z,36.39
2018-07-08T01:25:12.278Z,36.39
2018-07-08T01:27:45.241Z,36.40
2018-07-08T01:30:18.375Z,36.39
2018-07-08T01:32:51.107Z,36.39
2018-07-08T01:35:23.669Z,36.39
2018-07-08T01:37:56.841Z,36.38
2018-07-08T01:40:29.019Z,36.37
2018-07-08T01:43:01.678Z,36.37
2018-07-08T01:45:34.411Z,36.37
2018-07-08T01:48:07.517Z,36.37
2018-07-08T01:50:40.108Z,36.33
2018-07-08T01:53:13.495Z,36.34
2018-07-08T01:55:46.315Z,36.35
2018-07-08T01:58:19.647Z,36.35
2018-07-08T02:00:51.698Z,36.35
2018-07-08T02:03:24.517Z,36.35
2018-07-08T02:05:57.585Z,36.36
2018-07-08T02:08:30.491Z,36.34
2018-07-08T02:11:03.483Z,36.35
2018-07-08T02:13:36.203Z,36.36
2018-07-08T02:16:08.899Z,36.36
2018-07-08T02:18:41.701Z,36.35
2018-07-08T02:21:14.585Z,36.35
2018-07-08T02:23:47.328Z,36.35
2018-07-08T02:26:20.023Z,36.33
2018-07-08T02:28:53.079Z,36.33
2018-07-08T02:31:25.959Z,36.31
2018-07-08T02:33:58.621Z,36.32
2018-07-08T02:36:31.393Z,36.30
2018-07-08T02:39:04.420Z,36.30
2018-07-08T02:41:37.256Z,36.30
2018-07-08T02:44:09.766Z,36.30
2018-07-08T02:46:43.617Z,36.32
2018-07-08T02:49:17.068Z,36.30
2018-07-08T02:51:50.213Z,36.33
2018-07-08T02:54:22.915Z,36.32
2018-07-08T02:56:55.625Z,36.33
2018-07-08T02:59:28.169Z,36.33
2018-07-08T03:02:00.339Z,36.33
2018-07-08T03:04:33.245Z,36.32
2018-07-08T03:07:05.465Z,36.32
2018-07-08T03:09:38.297Z,36.30
2018-07-08T03:12:10.628Z,36.30
2018-07-08T03:14:42.794Z,36.30
2018-07-08T03:17:15.883Z,36.30
2018-07-08T03:19:48.173Z,36.29
2018-07-08T03:22:20.800Z,36.29
2018-07-08T03:24:53.327Z,36.26
2018-07-08T03:27:25.740Z,36.28
2018-07-08T03:29:58.106Z,36.29
2018-07-08T03:32:30.620Z,36.32
2018-07-08T03:35:03.173Z,36.30
2018-07-08T03:37:35.698Z,36.18
2018-07-08T03:40:07.790Z,36.26
2018-07-08T03:42:39.843Z,36.32
2018-07-08T03:45:12.183Z,36.33
2018-07-08T03:47:44.543Z,36.32
2018-07-08T03:50:16.904Z,36.28
2018-07-08T03:52:49.868Z,36.25
2018-07-08T03:55:22.570Z,36.29
2018-07-08T03:57:54.772Z,36.33
2018-07-08T04:00:27.141Z,36.30
2018-07-08T04:02:59.182Z,36.33
2018-07-08T04:05:31.536Z,36.34
2018-07-08T04:08:03.982Z,36.33
2018-07-08T04:10:36.968Z,36.35
2018-07-08T04:13:09.389Z,36.36
2018-07-08T04:15:42.250Z,36.36
2018-07-08T04:18:14.371Z,36.36
2018-07-08T04:20:47.405Z,36.38
2018-07-08T04:23:19.400Z,36.38
2018-07-08T04:25:51.769Z,36.30
2018-07-08T04:28:24.881Z,35.61
2018-07-08T04:30:57.186Z,35.61
2018-07-08T04:33:30.406Z,36.06
2018-07-08T04:36:03.157Z,36.24
2018-07-08T04:38:35.794Z,36.29
2018-07-08T04:41:08.706Z,36.30
2018-07-08T04:43:41.057Z,36.32
2018-07-08T04:46:13.520Z,36.35
2018-07-08T04:48:45.911Z,36.35
2018-07-08T04:51:17.957Z,36.36
2018-07-08T04:53:50.785Z,36.22
2018-07-08T04:56:23.359Z,36.28
2018-07-08T04:58:55.773Z,36.32
2018-07-08T05:01:28.501Z,36.39
2018-07-08T05:04:00.842Z,36.36
2018-07-08T05:06:33.176Z,36.33
2018-07-08T05:09:05.554Z,36.37
2018-07-08T05:11:38.084Z,36.42
2018-07-08T05:14:11.077Z,36.40
2018-07-08T05:16:43.931Z,36.36
2018-07-08T05:19:16.779Z,36.36
2018-07-08T05:21:50.079Z,36.32
2018-07-08T05:24:22.102Z,36.40
2018-07-08T05:26:54.948Z,36.38
2018-07-08T05:29:27.553Z,36.28
2018-07-08T05:31:59.862Z,36.39
2018-07-08T05:34:32.513Z,36.44
2018-07-08T05:37:05.127Z,36.47
2018-07-08T05:39:37.424Z,36.45
2018-07-08T05:42:09.923Z,36.49
2018-07-08T05:44:42.683Z,36.52
2018-07-08T05:47:15.726Z,36.49
2018-07-08T05:49:48.254Z,36.52
2018-07-08T05:52:20.981Z,36.33
2018-07-08T05:54:53.105Z,36.45
2018-07-08T05:57:26.250Z,36.49
2018-07-08T05:59:58.683Z,36.53
2018-07-08T06:02:31.144Z,36.56
2018-07-08T06:05:03.571Z,36.57
2018-07-08T06:07:37.149Z,36.57
2018-07-08T06:10:10.185Z,36.59
2018-07-08T06:12:43.067Z,36.60
2018-07-08T06:15:16.717Z,36.60
2018-07-08T06:17:49.600Z,36.61
2018-07-08T06:20:21.686Z,36.63
2018-07-08T06:22:54.303Z,36.61
2018-07-08T06:25:26.618Z,36.59
2018-07-08T06:27:59.768Z,36.63
2018-07-08T06:30:32.247Z,36.71
2018-07-08T06:33:05.247Z,36.69
2018-07-08T06:35:37.883Z,36.74
2018-07-08T06:38:10.306Z,36.75
2018-07-08T06:40:43.134Z,36.68
2018-07-08T06:43:15.539Z,36.55
2018-07-08T06:45:47.901Z,36.64
2018-07-08T06:48:20.772Z,36.67
2018-07-08T06:50:52.969Z,36.68
2018-07-08T06:53:26.129Z,36.69
2018-07-08T06:55:58.567Z,36.74
2018-07-08T06:58:31.508Z,36.82
2018-07-08T07:01:03.723Z,36.76
2018-07-08T07:03:36.621Z,36.78
2018-07-08T07:06:09.519Z,36.79
2018-07-08T07:08:42.545Z,36.81
2018-07-08T07:11:14.859Z,36.79
2018-07-08T07:13:47.836Z,36.81
2018-07-08T07:16:21.154Z,36.84
2018-07-08T07:18:53.406Z,36.81
2018-07-08T07:21:26.269Z,36.84
2018-07-08T07:23:58.762Z,36.87
2018-07-08T07:26:31.825Z,36.91
2018-07-08T07:29:05.003Z,36.88
2018-07-08T07:31:36.942Z,36.87
2018-07-08T07:34:09.637Z,36.91
2018-07-08T07:36:42.095Z,36.91
2018-07-08T07:39:14.743Z,36.93
2018-07-08T07:41:46.840Z,36.92
2018-07-08T07:44:19.843Z,36.90
2018-07-08T07:46:52.107Z,36.93
2018-07-08T07:49:24.574Z,37.02
2018-07-08T07:51:56.981Z,37.01
2018-07-08T07:54:29.497Z,37.02
2018-07-08T07:57:01.924Z,36.93
2018-07-08T07:59:34.370Z,36.90
2018-07-08T08:02:07.066Z,36.95
2018-07-08T08:04:39.662Z,36.93
2018-07-08T08:07:12.400Z,36.99
2018-07-08T08:09:45.321Z,37.06
2018-07-08T08:12:17.816Z,37.05
2018-07-08T08:14:50.267Z,37.09
2018-07-08T08:17:22.677Z,37.10
2018-07-08T08:19:55.646Z,37.14
2018-07-08T08:22:28.220Z,37.09
2018-07-08T08:25:00.990Z,37.16
2018-07-08T08:27:33.647Z,37.13
2018-07-08T08:30:06.652Z,37.16
2018-07-08T08:32:39.185Z,37.22
2018-07-08T08:35:12.949Z,37.01
2018-07-08T08:37:46.401Z,36.97
2018-07-08T08:40:19.791Z,36.96
2018-07-08T08:42:52.636Z,37.11
2018-07-08T08:45:26.513Z,37.09
2018-07-08T08:47:59.136Z,37.14
2018-07-08T08:50:32.300Z,37.16
2018-07-08T08:53:04.707Z,37.16
2018-07-08T08:55:37.444Z,37.21
2018-07-08T08:58:09.711Z,37.22
2018-07-08T09:00:42.238Z,37.31
2018-07-08T09:03:15.202Z,37.44
2018-07-08T09:05:48.153Z,37.29
2018-07-08T09:08:21.109Z,37.34
2018-07-08T09:10:53.789Z,37.40
2018-07-08T09:13:31.144Z,37.40
2018-07-08T09:16:04.376Z,37.36
2018-07-08T09:18:37.434Z,37.33
2018-07-08T09:21:10.297Z,37.28
2018-07-08T09:23:42.649Z,37.34
2018-07-08T09:26:15.793Z,37.39
2018-07-08T09:28:48.304Z,37.38
2018-07-08T09:31:21.977Z,37.38
2018-07-08T09:33:54.884Z,37.44
2018-07-08T09:36:27.300Z,37.43
2018-07-08T09:39:00.256Z,37.43
2018-07-08T09:41:33.400Z,37.47
2018-07-08T09:44:07.190Z,37.57
2018-07-08T09:46:39.222Z,37.47
2018-07-08T09:49:11.927Z,37.46
2018-07-08T09:51:44.974Z,37.62
2018-07-08T09:54:18.063Z,37.53
2018-07-08T09:56:50.200Z,37.61
2018-07-08T09:59:23.070Z,37.56
2018-07-08T10:01:56.390Z,37.60
2018-07-08T10:04:28.984Z,37.58
2018-07-08T10:07:01.746Z,37.59
2018-07-08T10:09:35.348Z,37.64
2018-07-08T10:12:08.677Z,37.88
2018-07-08T10:14:40.842Z,37.85
2018-07-08T10:17:12.887Z,37.70
2018-07-08T10:19:45.425Z,37.71
2018-07-08T10:22:17.892Z,37.77
2018-07-08T10:24:50.350Z,37.72
2018-07-08T10:40:40.026Z,37.80
2018-07-08T10:43:12.255Z,37.79
2018-07-08T10:45:45.194Z,37.79
2018-07-08T10:48:17.980Z,37.77
2018-07-08T10:50:50.588Z,37.83
2018-07-08T10:53:23.658Z,37.82
2018-07-08T10:55:56.614Z,37.82
2018-07-08T10:58:29.615Z,37.84
2018-07-08T11:01:02.654Z,37.86
2018-07-08T11:03:36.197Z,37.84
2018-07-08T11:06:08.377Z,37.83
2018-07-08T11:08:41.040Z,37.88
2018-07-08T11:11:13.336Z,37.89
2018-07-08T11:13:45.833Z,37.90
2018-07-08T11:16:18.507Z,37.90
2018-07-08T11:18:50.814Z,37.91
2018-07-08T11:21:22.974Z,37.94
2018-07-08T11:23:55.609Z,37.95
2018-07-08T11:26:28.350Z,38.03
2018-07-08T11:29:01.208Z,38.08
2018-07-08T11:31:33.649Z,37.99
2018-07-08T11:34:06.378Z,37.98
2018-07-08T11:36:38.942Z,38.00
2018-07-08T11:39:11.411Z,37.99
2018-07-08T11:41:44.241Z,38.00
2018-07-08T11:44:17.554Z,38.01
2018-07-08T11:46:50.547Z,38.03
2018-07-08T11:49:23.380Z,38.04
2018-07-08T11:51:56.014Z,38.10
2018-07-08T11:54:28.556Z,38.11
2018-07-08T11:57:01.012Z,38.09
2018-07-08T11:59:33.300Z,38.06
2018-07-08T12:02:05.632Z,38.08
2018-07-08T12:04:37.850Z,38.06
2018-07-08T12:07:10.596Z,38.04
2018-07-08T12:09:42.613Z,38.03
2018-07-08T12:12:14.849Z,38.02
2018-07-08T12:14:47.396Z,38.04
2018-07-08T12:17:19.922Z,37.99
2018-07-08T12:19:52.050Z,38.03
2018-07-08T12:22:24.203Z,38.02
2018-07-08T12:24:56.701Z,38.00
2018-07-08T12:27:29.547Z,38.04
2018-07-08T12:30:01.427Z,38.02
2018-07-08T12:32:33.833Z,38.01
2018-07-08T12:35:06.358Z,38.00
2018-07-08T12:37:38.584Z,37.98
2018-07-08T12:40:10.939Z,38.02
2018-07-08T12:42:43.834Z,38.01
2018-07-08T12:45:16.109Z,38.03
2018-07-08T12:47:48.741Z,38.01
2018-07-08T12:50:21.384Z,37.99
2018-07-08T12:52:54.132Z,38.03
2018-07-08T12:55:26.300Z,38.04
2018-07-08T12:57:58.818Z,38.01
2018-07-08T13:00:31.369Z,38.03
2018-07-08T13:03:03.920Z,38.07
2018-07-08T13:05:36.101Z,38.06
2018-07-08T13:08:10.832Z,38.03
2018-07-08T13:10:43.042Z,37.99
2018-07-08T13:13:15.807Z,38.00
2018-07-08T13:15:48.369Z,37.98
2018-07-08T13:18:21.381Z,38.01
2018-07-08T13:20:53.815Z,38.01
2018-07-08T13:23:26.146Z,38.02
2018-07-08T13:25:58.489Z,37.98
2018-07-08T13:28:30.758Z,38.02
2018-07-08T13:31:02.693Z,37.92
2018-07-08T13:33:35.246Z,37.96
2018-07-08T13:36:07.895Z,37.98
2018-07-08T13:38:40.547Z,37.99
2018-07-08T13:41:12.971Z,38.00
2018-07-08T13:43:45.932Z,37.98
2018-07-08T13:46:18.131Z,37.91
2018-07-08T13:48:50.501Z,37.90
2018-07-08T13:51:22.927Z,37.95
2018-07-08T13:53:56.146Z,37.97
2018-07-08T13:56:28.509Z,37.98
2018-07-08T13:59:00.798Z,37.95
2018-07-08T14:01:33.495Z,37.82
2018-07-08T14:04:05.911Z,37.88
2018-07-08T14:06:38.211Z,37.93
2018-07-08T14:09:10.240Z,37.91
2018-07-08T14:11:42.858Z,37.95
2018-07-08T14:14:15.476Z,37.96
2018-07-08T14:16:47.636Z,37.94
2018-07-08T14:19:20.842Z,37.92
2018-07-08T14:21:53.686Z,37.95
2018-07-08T14:24:26.090Z,37.96
2018-07-08T14:26:58.163Z,37.96
2018-07-08T14:29:30.874Z,37.96
2018-07-08T14:32:03.168Z,37.95
2018-07-08T14:34:35.780Z,37.96
2018-07-08T14:37:08.384Z,37.96
2018-07-08T14:39:40.754Z,37.94
2018-07-08T14:42:12.942Z,37.95
2018-07-08T14:44:45.273Z,37.93
2018-07-08T14:47:17.885Z,37.94
2018-07-08T14:49:50.367Z,37.93
2018-07-08T14:52:22.610Z,37.93
2018-07-08T14:54:54.965Z,37.92
2018-07-08T14:57:27.484Z,37.93
2018-07-08T14:59:59.578Z,37.93
2018-07-08T15:02:32.751Z,37.93
2018-07-08T15:05:05.735Z,37.93
2018-07-08T15:07:37.703Z,37.94
2018-07-08T15:10:09.865Z,37.93
2018-07-08T15:12:42.104Z,37.93
2018-07-08T15:15:14.734Z,37.94
2018-07-08T15:17:47.450Z,37.94
2018-07-08T15:20:20.934Z,37.94
2018-07-08T15:22:53.183Z,37.91
2018-07-08T15:25:25.241Z,37.91
2018-07-08T15:27:57.303Z,37.89
2018-07-08T15:30:29.585Z,37.90
2018-07-08T15:33:03.064Z,37.92
2018-07-08T15:35:36.274Z,37.93
2018-07-08T15:38:12.454Z,37.92
2018-07-08T15:40:44.628Z,37.93
2018-07-08T15:43:16.842Z,37.90
2018-07-08T15:45:49.375Z,37.91
2018-07-08T15:48:21.731Z,37.89
2018-07-08T15:50:54.153Z,37.75
2018-07-08T15:53:26.273Z,37.78
2018-07-08T15:55:58.896Z,37.84
2018-07-08T15:58:31.528Z,37.75
2018-07-08T16:01:04.009Z,37.76
2018-07-08T16:03:36.192Z,37.82
2018-07-08T16:06:08.479Z,37.85
2018-07-08T16:08:40.630Z,37.88
2018-07-08T16:11:13.282Z,37.88
2018-07-08T16:13:45.641Z,37.88
2018-07-08T16:16:17.966Z,37.89
2018-07-08T16:18:50.440Z,37.89
2018-07-08T16:21:22.722Z,37.89
2018-07-08T16:23:55.130Z,37.89
2018-07-08T16:26:27.194Z,37.88
2018-07-08T16:28:59.394Z,37.88
2018-07-08T16:31:31.872Z,37.88
2018-07-08T16:34:05.235Z,37.88
2018-07-08T16:36:37.477Z,37.85
2018-07-08T16:39:09.682Z,37.86
2018-07-08T16:41:42.002Z,37.86
2018-07-08T16:44:14.093Z,37.88
2018-07-08T16:46:46.611Z,37.87
2018-07-08T16:49:18.531Z,37.88
2018-07-08T16:51:50.713Z,37.85
2018-07-08T16:54:22.835Z,37.86
2018-07-08T16:56:55.378Z,37.88
2018-07-08T16:59:28.686Z,37.88
2018-07-08T17:02:01.510Z,37.86
2018-07-08T17:04:34.390Z,37.68
2018-07-08T17:07:06.891Z,37.69
2018-07-08T17:09:39.011Z,37.75
2018-07-08T17:12:11.538Z,37.78
2018-07-08T17:14:43.891Z,37.80
2018-07-08T17:17:16.734Z,37.81
2018-07-08T17:19:49.413Z,37.81
2018-07-08T17:22:22.245Z,37.82
2018-07-08T17:24:54.401Z,37.72
2018-07-08T17:27:26.370Z,37.76
2018-07-08T17:29:58.968Z,37.79
2018-07-08T17:32:31.527Z,37.80
2018-07-08T17:35:03.723Z,37.81
2018-07-08T17:37:36.058Z,37.82
2018-07-08T17:40:08.896Z,37.83
2018-07-08T17:42:41.500Z,37.83
2018-07-08T17:45:13.488Z,37.82
2018-07-08T17:47:45.684Z,37.83
2018-07-08T17:50:17.816Z,37.83
2018-07-08T17:52:51.091Z,37.82
2018-07-08T17:55:23.303Z,37.82
2018-07-08T17:57:56.056Z,37.82
2018-07-08T18:00:29.553Z,37.82
2018-07-08T18:03:01.811Z,37.82
2018-07-08T18:05:33.597Z,37.80
2018-07-08T18:08:05.726Z,37.80
2018-07-08T18:10:37.483Z,37.78
2018-07-08T18:13:10.040Z,37.77
2018-07-08T18:15:42.230Z,37.79
2018-07-08T18:18:14.309Z,37.80
2018-07-08T18:20:46.728Z,37.79
2018-07-08T18:23:19.064Z,37.80
2018-07-08T18:25:51.559Z,37.79
2018-07-08T18:28:23.845Z,37.79
2018-07-08T18:30:55.920Z,37.80
2018-07-08T18:33:28.402Z,37.79
2018-07-08T18:36:00.760Z,37.79
2018-07-08T18:38:33.418Z,37.78
2018-07-08T18:41:06.738Z,37.76
2018-07-08T18:43:39.125Z,37.77
2018-07-08T18:46:11.549Z,37.74
2018-07-08T18:48:43.902Z,37.73
2018-07-08T18:51:16.041Z,37.72
2018-07-08T18:53:48.516Z,37.71
2018-07-08T18:56:21.083Z,37.74
2018-07-08T18:58:54.002Z,37.72
2018-07-08T19:01:26.527Z,37.72
2018-07-08T19:03:59.110Z,37.74
2018-07-08T19:06:31.348Z,37.73
2018-07-08T19:09:03.812Z,37.74
2018-07-08T19:11:35.996Z,37.73
2018-07-08T19:14:08.182Z,37.72
2018-07-08T19:16:41.024Z,37.69
2018-07-08T19:19:15.205Z,37.69
2018-07-08T19:21:47.448Z,37.70
2018-07-08T19:24:20.333Z,37.68
2018-07-08T19:26:52.491Z,37.19
2018-07-08T19:29:25.656Z,37.36
2018-07-08T19:31:57.844Z,37.53
2018-07-08T19:34:30.358Z,37.53
2018-07-08T19:37:02.564Z,37.57
2018-07-08T19:39:34.979Z,37.58
2018-07-08T19:42:07.249Z,37.58
2018-07-08T19:44:39.502Z,37.57
2018-07-08T19:47:11.407Z,37.60
2018-07-08T19:49:43.958Z,37.60
2018-07-08T19:52:16.803Z,37.59
2018-07-08T19:54:49.040Z,37.58
2018-07-08T19:57:21.467Z,37.56
2018-07-08T19:59:53.911Z,37.58
2018-07-08T20:02:26.415Z,37.57
2018-07-08T20:04:59.426Z,37.58
2018-07-08T20:07:31.528Z,37.55
2018-07-08T20:10:03.825Z,37.53
2018-07-08T20:12:36.468Z,37.53
2018-07-08T20:15:08.913Z,37.53
2018-07-08T20:17:40.976Z,37.49
2018-07-08T20:20:13.645Z,37.47
2018-07-08T20:22:45.992Z,37.47
2018-07-08T20:25:18.738Z,37.52
2018-07-08T20:27:50.962Z,37.51
2018-07-08T20:30:23.458Z,37.47
2018-07-08T20:32:55.756Z,37.50
2018-07-08T20:35:27.808Z,37.49
2018-07-08T20:37:59.996Z,37.48
2018-07-08T20:40:33.042Z,37.47
2018-07-08T20:43:05.777Z,37.51
2018-07-08T20:45:38.123Z,37.51
2018-07-08T20:48:10.440Z,37.50
2018-07-08T20:50:43.209Z,37.46
2018-07-08T20:53:16.033Z,37.49
2018-07-08T20:55:48.275Z,37.49
2018-07-08T20:58:21.636Z,37.46
2018-07-08T21:00:54.185Z,37.40
2018-07-08T21:03:26.300Z,37.43
2018-07-08T21:05:58.861Z,37.43
2018-07-08T21:08:31.247Z,37.38
2018-07-08T21:11:03.747Z,37.42
2018-07-08T21:13:36.551Z,37.41
2018-07-08T21:16:09.048Z,37.42
2018-07-08T21:18:41.928Z,37.36
2018-07-08T21:21:14.327Z,37.38
2018-07-08T21:23:46.757Z,37.39
2018-07-08T21:26:19.178Z,37.38
2018-07-08T21:28:52.457Z,37.34
2018-07-08T21:31:25.265Z,37.32
2018-07-08T21:33:57.703Z,37.33
2018-07-08T21:36:29.899Z,37.33
2018-07-08T21:39:02.925Z,37.35
2018-07-08T21:41:35.710Z,37.37
2018-07-08T21:44:08.302Z,37.35
2018-07-08T21:46:40.899Z,37.35
2018-07-08T21:49:12.910Z,37.32
2018-07-08T21:51:44.971Z,37.32
2018-07-08T21:54:16.992Z,37.30
2018-07-08T21:56:49.380Z,37.30
2018-07-08T21:59:21.662Z,37.30
2018-07-08T22:02:05.370Z,37.30
2018-07-08T22:04:37.352Z,37.28
2018-07-08T22:07:13.826Z,37.30
2018-07-08T22:09:46.433Z,37.33
2018-07-08T22:12:18.910Z,37.29
2018-07-08T22:14:50.980Z,37.29
2018-07-08T22:17:23.445Z,37.27
2018-07-08T22:19:55.780Z,37.25
2018-07-08T22:22:28.889Z,37.27
2018-07-08T22:25:01.458Z,37.29
2018-07-08T22:27:34.003Z,37.27
2018-07-08T22:30:07.073Z,37.29
2018-07-08T22:32:39.760Z,37.25
2018-07-08T22:35:11.805Z,37.27
2018-07-08T22:37:43.929Z,37.24
2018-07-08T22:40:15.927Z,37.24
2018-07-08T22:42:48.225Z,37.24
2018-07-08T22:45:20.270Z,37.23
2018-07-08T22:47:53.037Z,37.21
2018-07-08T22:50:25.181Z,37.20
2018-07-08T22:52:57.912Z,37.20
2018-07-08T22:55:30.114Z,37.20
2018-07-08T22:58:02.359Z,37.21
2018-07-08T23:00:43.607Z,37.19
2018-07-08T23:03:27.786Z,37.19
2018-07-08T23:05:59.750Z,37.15
2018-07-08T23:08:31.512Z,37.21
2018-07-08T23:11:03.769Z,37.17
2018-07-08T23:13:37.053Z,37.16
2018-07-08T23:16:09.532Z,37.14
2018-07-08T23:18:41.796Z,37.16
2018-07-08T23:21:13.957Z,37.12
2018-07-08T23:23:46.125Z,37.11
2018-07-08T23:26:18.067Z,37.10
2018-07-08T23:28:50.454Z,37.13
2018-07-08T23:31:23.628Z,37.10
2018-07-08T23:33:56.449Z,37.12
2018-07-08T23:36:28.528Z,37.10
2018-07-08T23:39:01.122Z,37.08
2018-07-08T23:41:33.420Z,37.09
2018-07-08T23:44:05.712Z,37.12
2018-07-08T23:46:37.888Z,37.12
2018-07-08T23:49:10.618Z,37.13
2018-07-08T23:51:43.065Z,37.11
2018-07-08T23:54:16.106Z,37.08
2018-07-08T23:56:48.552Z,37.05
2018-07-08T23:59:20.801Z,37.08
